Time;durP1;ratioP1;P1;durP2;ratioP2;P2;SDS_P1;SDS_P2;PMS_P1;PMS_P2;Temp;Humidity;BMP_temperature;BMP_pressure;BME280_temperature;BME280_humidity;BME280_pressure;Samples;Min_cycle;Max_cycle;Signal;HPM_P1;HPM_P2
2021/07/18 00:00:13;;;;;;;7.55;3.92;;;;;;;;;;5049383;28;37626;-76
2021/07/18 00:02:39;;;;;;;7.15;4.03;;;;;;;;;;5049309;28;39414;-76
2021/07/18 00:05:06;;;;;;;8.48;4.35;;;;;;;;;;5044895;28;35443;-76
2021/07/18 00:07:33;;;;;;;6.97;4.78;;;;;;;;;;5048883;28;39256;-77
2021/07/18 00:10:00;;;;;;;8.63;5.20;;;;;;;;;;5050395;28;37403;-77
2021/07/18 00:12:26;;;;;;;6.47;4.35;;;;;;;;;;5051576;28;38851;-77
2021/07/18 00:14:53;;;;;;;5.15;4.53;;;;;;;;;;5048863;28;38927;-77
2021/07/18 00:17:19;;;;;;;4.07;3.40;;;;;;;;;;5051903;28;38356;-77
2021/07/18 00:19:46;;;;;;;6.10;4.43;;;;;;;;;;5048776;28;38550;-77
2021/07/18 00:22:12;;;;;;;8.55;4.80;;;;;;;;;;5050338;28;38469;-77
2021/07/18 00:24:38;;;;;;;6.35;4.45;;;;;;;;;;5047410;28;38811;-76
2021/07/18 00:27:05;;;;;;;5.70;4.10;;;;;;;;;;5048169;28;39046;-77
2021/07/18 00:29:31;;;;;;;5.70;4.20;;;;;;;;;;5048546;28;36793;-76
2021/07/18 00:31:58;;;;;;;7.28;4.57;;;;;;;;;;5047735;28;39905;-77
2021/07/18 00:34:24;;;;;;;6.43;4.40;;;;;;;;;;5052305;28;37603;-76
2021/07/18 00:36:50;;;;;;;7.25;4.50;;;;;;;;;;5049627;28;39595;-77
2021/07/18 00:39:17;;;;;;;7.30;4.55;;;;;;;;;;5049643;28;37179;-76
2021/07/18 00:41:44;;;;;;;7.30;4.88;;;;;;;;;;5049928;28;39282;-77
2021/07/18 00:44:10;;;;;;;6.82;4.78;;;;;;;;;;5048928;28;39606;-76
2021/07/18 00:46:37;;;;;;;6.78;4.57;;;;;;;;;;5047983;28;37863;-77
2021/07/18 00:49:04;;;;;;;9.30;4.90;;;;;;;;;;5049795;28;37079;-77
2021/07/18 00:51:30;;;;;;;6.85;4.95;;;;;;;;;;5049281;28;39665;-77
2021/07/18 00:53:58;;;;;;;7.40;4.60;;;;;;;;;;5052262;28;36811;-77
2021/07/18 00:56:24;;;;;;;8.35;4.43;;;;;;;;;;5051102;28;38358;-77
2021/07/18 00:58:54;;;;;;;7.93;4.68;;;;;;;;;;5047240;28;38152;-78
2021/07/18 01:01:21;;;;;;;10.63;5.00;;;;;;;;;;5050612;28;40020;-77
2021/07/18 01:03:48;;;;;;;7.97;4.82;;;;;;;;;;5048723;28;39183;-77
2021/07/18 01:06:14;;;;;;;6.55;4.53;;;;;;;;;;5046312;28;40415;-77
2021/07/18 01:08:40;;;;;;;6.13;4.78;;;;;;;;;;5046911;28;37607;-77
2021/07/18 01:11:07;;;;;;;6.57;4.15;;;;;;;;;;5047467;28;38333;-77
2021/07/18 01:13:33;;;;;;;9.25;5.47;;;;;;;;;;5047345;28;38848;-77
2021/07/18 01:16:00;;;;;;;7.25;5.30;;;;;;;;;;5048940;28;38765;-76
2021/07/18 01:18:26;;;;;;;7.75;5.28;;;;;;;;;;5048410;27;36724;-77
2021/07/18 01:20:53;;;;;;;8.57;4.88;;;;;;;;;;5048326;28;39682;-76
2021/07/18 01:23:20;;;;;;;8.60;4.82;;;;;;;;;;5050087;27;36937;-77
2021/07/18 01:25:52;;;;;;;9.95;6.38;;;;;;;;;;5048680;28;40321;-77
2021/07/18 01:28:19;;;;;;;8.70;6.82;;;;;;;;;;5046761;28;37363;-76
2021/07/18 01:30:46;;;;;;;9.63;6.82;;;;;;;;;;5047337;28;40617;-76
2021/07/18 01:33:12;;;;;;;9.45;6.50;;;;;;;;;;5049016;27;38390;-76
2021/07/18 01:35:39;;;;;;;9.38;5.75;;;;;;;;;;5049228;28;39053;-76
2021/07/18 01:38:09;;;;;;;7.45;5.65;;;;;;;;;;5049438;28;36822;-76
2021/07/18 01:40:35;;;;;;;6.38;5.45;;;;;;;;;;5053002;28;38667;-76
2021/07/18 01:43:02;;;;;;;8.90;5.68;;;;;;;;;;5053750;28;37193;-76
2021/07/18 01:45:28;;;;;;;9.10;5.15;;;;;;;;;;5051540;28;39381;-76
2021/07/18 01:47:55;;;;;;;10.43;5.63;;;;;;;;;;5052262;28;38150;-76
2021/07/18 01:50:22;;;;;;;6.18;4.30;;;;;;;;;;5050396;28;38185;-77
2021/07/18 01:52:49;;;;;;;9.50;5.68;;;;;;;;;;5051427;28;39093;-76
2021/07/18 01:55:18;;;;;;;7.32;5.35;;;;;;;;;;5050891;28;38354;-76
2021/07/18 01:57:45;;;;;;;9.48;5.47;;;;;;;;;;5053860;28;39424;-76
2021/07/18 02:00:12;;;;;;;8.13;4.80;;;;;;;;;;5051267;28;39966;-76
2021/07/18 02:02:42;;;;;;;6.35;4.82;;;;;;;;;;5050079;28;37537;-76
2021/07/18 02:05:09;;;;;;;6.47;4.78;;;;;;;;;;5051658;28;38941;-76
2021/07/18 02:07:35;;;;;;;6.53;4.75;;;;;;;;;;5051763;27;37795;-76
2021/07/18 02:10:02;;;;;;;7.10;5.10;;;;;;;;;;5050256;28;39674;-76
2021/07/18 02:12:28;;;;;;;9.70;4.90;;;;;;;;;;5053451;28;39773;-76
2021/07/18 02:14:54;;;;;;;7.03;4.97;;;;;;;;;;5049691;28;39813;-77
2021/07/18 02:17:21;;;;;;;6.90;4.78;;;;;;;;;;5049936;28;36128;-76
2021/07/18 02:19:47;;;;;;;6.72;4.90;;;;;;;;;;5051889;28;40064;-76
2021/07/18 02:22:14;;;;;;;6.90;4.72;;;;;;;;;;5048318;28;39111;-77
2021/07/18 02:24:40;;;;;;;7.28;4.60;;;;;;;;;;5049541;28;38174;-77
2021/07/18 02:27:07;;;;;;;5.70;4.18;;;;;;;;;;5049949;28;35807;-77
2021/07/18 02:29:34;;;;;;;9.32;5.53;;;;;;;;;;5051887;28;39501;-76
2021/07/18 02:32:00;;;;;;;8.15;5.38;;;;;;;;;;5050779;28;39679;-76
2021/07/18 02:34:26;;;;;;;9.02;5.43;;;;;;;;;;5049064;28;46231;-76
2021/07/18 02:36:53;;;;;;;7.95;5.40;;;;;;;;;;5051276;28;35969;-76
2021/07/18 02:39:19;;;;;;;9.35;5.68;;;;;;;;;;5051848;28;38643;-76
2021/07/18 02:41:47;;;;;;;8.05;6.30;;;;;;;;;;5053546;28;38352;-76
2021/07/18 02:44:14;;;;;;;7.90;5.93;;;;;;;;;;5049361;28;36211;-76
2021/07/18 02:46:41;;;;;;;7.32;6.32;;;;;;;;;;5050797;28;37662;-76
2021/07/18 02:49:07;;;;;;;9.27;5.82;;;;;;;;;;5050766;28;40660;-76
2021/07/18 02:51:34;;;;;;;8.82;6.28;;;;;;;;;;5048021;28;39669;-76
2021/07/18 02:54:00;;;;;;;7.78;5.70;;;;;;;;;;5053657;28;37558;-76
2021/07/18 02:56:27;;;;;;;8.60;6.20;;;;;;;;;;5050499;28;38621;-77
2021/07/18 02:58:53;;;;;;;10.20;6.50;;;;;;;;;;5051919;28;39175;-77
2021/07/18 03:01:19;;;;;;;8.07;6.30;;;;;;;;;;5047379;28;39450;-76
2021/07/18 03:03:47;;;;;;;11.88;7.07;;;;;;;;;;5048845;28;38601;-76
2021/07/18 03:06:14;;;;;;;9.40;6.28;;;;;;;;;;5050396;28;35566;-76
2021/07/18 03:08:40;;;;;;;12.63;7.22;;;;;;;;;;5047355;28;39833;-76
2021/07/18 03:11:07;;;;;;;10.98;6.43;;;;;;;;;;5048231;28;39568;-76
2021/07/18 03:13:33;;;;;;;9.70;6.10;;;;;;;;;;5055383;28;39211;-76
2021/07/18 03:15:59;;;;;;;9.50;6.05;;;;;;;;;;5053256;28;35274;-76
2021/07/18 03:18:26;;;;;;;10.75;6.63;;;;;;;;;;5050520;28;39566;-76
2021/07/18 03:20:52;;;;;;;12.18;7.00;;;;;;;;;;5048781;28;38700;-77
2021/07/18 03:23:18;;;;;;;11.85;6.78;;;;;;;;;;5048523;28;39316;-77
2021/07/18 03:25:45;;;;;;;8.68;6.00;;;;;;;;;;5056493;28;36738;-77
2021/07/18 03:28:11;;;;;;;8.38;6.40;;;;;;;;;;5052074;28;39047;-77
2021/07/18 03:30:38;;;;;;;8.68;6.50;;;;;;;;;;5058864;28;38333;-76
2021/07/18 03:33:04;;;;;;;9.55;6.15;;;;;;;;;;5049120;28;38683;-77
2021/07/18 03:35:30;;;;;;;9.38;7.05;;;;;;;;;;5049380;28;36747;-76
2021/07/18 03:37:57;;;;;;;8.90;5.93;;;;;;;;;;5049382;28;38759;-76
2021/07/18 03:40:24;;;;;;;8.65;5.78;;;;;;;;;;5055792;28;38600;-77
2021/07/18 03:42:50;;;;;;;8.95;5.82;;;;;;;;;;5062309;28;39987;-77
2021/07/18 03:45:17;;;;;;;9.15;5.63;;;;;;;;;;5050557;28;39447;-77
2021/07/18 03:47:44;;;;;;;8.35;5.85;;;;;;;;;;5054030;28;38857;-76
2021/07/18 03:50:11;;;;;;;9.10;5.68;;;;;;;;;;5047792;28;39135;-76
2021/07/18 03:52:38;;;;;;;8.13;5.68;;;;;;;;;;5050108;28;36975;-77
2021/07/18 03:55:05;;;;;;;6.75;5.60;;;;;;;;;;5046589;28;38171;-77
2021/07/18 03:57:31;;;;;;;7.45;5.55;;;;;;;;;;5048632;28;47423;-76
2021/07/18 03:59:57;;;;;;;7.32;5.28;;;;;;;;;;5045513;28;39231;-76
2021/07/18 04:02:24;;;;;;;6.70;4.43;;;;;;;;;;5049554;28;38730;-77
2021/07/18 04:04:50;;;;;;;6.07;5.30;;;;;;;;;;5048761;28;37792;-77
2021/07/18 04:07:17;;;;;;;8.38;5.70;;;;;;;;;;5045711;28;37826;-76
2021/07/18 04:09:43;;;;;;;5.63;4.85;;;;;;;;;;5049279;28;39209;-76
2021/07/18 04:12:10;;;;;;;8.27;4.38;;;;;;;;;;5049867;28;38018;-77
2021/07/18 04:14:36;;;;;;;7.40;4.35;;;;;;;;;;5049834;28;38955;-77
2021/07/18 04:17:03;;;;;;;9.18;5.28;;;;;;;;;;5047676;28;39318;-76
2021/07/18 04:19:29;;;;;;;8.38;5.85;;;;;;;;;;5050479;28;39150;-76
2021/07/18 04:21:55;;;;;;;6.95;4.45;;;;;;;;;;5049823;28;39294;-77
2021/07/18 04:24:22;;;;;;;7.32;4.75;;;;;;;;;;5051773;28;35131;-76
2021/07/18 04:26:48;;;;;;;6.95;4.43;;;;;;;;;;5045122;28;40521;-76
2021/07/18 04:29:15;;;;;;;7.05;5.53;;;;;;;;;;5046466;28;38345;-76
2021/07/18 04:31:41;;;;;;;7.35;4.28;;;;;;;;;;5047806;28;37556;-77
2021/07/18 04:34:07;;;;;;;5.53;4.45;;;;;;;;;;5046879;28;38638;-76
2021/07/18 04:36:34;;;;;;;6.57;5.20;;;;;;;;;;5047727;28;38916;-77
2021/07/18 04:39:00;;;;;;;6.28;4.60;;;;;;;;;;5055885;28;39594;-77
2021/07/18 04:41:27;;;;;;;5.40;4.70;;;;;;;;;;5048796;28;39655;-77
2021/07/18 04:43:54;;;;;;;6.90;5.38;;;;;;;;;;5050463;28;36424;-78
2021/07/18 04:46:20;;;;;;;9.90;5.35;;;;;;;;;;5047650;28;40962;-77
2021/07/18 04:48:47;;;;;;;6.75;4.85;;;;;;;;;;5046943;28;41444;-77
2021/07/18 04:51:13;;;;;;;6.90;4.68;;;;;;;;;;5045253;28;39774;-78
2021/07/18 04:53:39;;;;;;;7.47;4.82;;;;;;;;;;5050462;28;37404;-77
2021/07/18 04:56:06;;;;;;;6.75;4.78;;;;;;;;;;5050002;28;38650;-77
2021/07/18 04:58:32;;;;;;;5.85;4.47;;;;;;;;;;5049428;28;40442;-77
2021/07/18 05:00:59;;;;;;;6.00;4.63;;;;;;;;;;5048260;28;35463;-77
2021/07/18 05:03:25;;;;;;;6.28;4.38;;;;;;;;;;5047995;28;37170;-77
2021/07/18 05:05:51;;;;;;;8.27;5.68;;;;;;;;;;5048575;28;40091;-77
2021/07/18 05:08:18;;;;;;;6.07;4.50;;;;;;;;;;5049097;28;40622;-76
2021/07/18 05:10:44;;;;;;;5.18;4.32;;;;;;;;;;5046543;28;39223;-76
2021/07/18 05:13:10;;;;;;;7.85;4.90;;;;;;;;;;5058668;28;37591;-77
2021/07/18 05:15:37;;;;;;;6.97;4.95;;;;;;;;;;5048624;28;38630;-78
2021/07/18 05:18:10;;;;;;;8.40;4.95;;;;;;;;;;5053133;27;38556;-78
2021/07/18 05:20:37;;;;;;;5.93;4.50;;;;;;;;;;5049826;28;39821;-77
2021/07/18 05:23:03;;;;;;;5.38;4.45;;;;;;;;;;5046843;28;36808;-76
2021/07/18 05:25:30;;;;;;;5.82;3.88;;;;;;;;;;5051224;28;40369;-77
2021/07/18 05:27:56;;;;;;;7.07;3.33;;;;;;;;;;5050242;28;39224;-78
2021/07/18 05:30:23;;;;;;;5.40;2.75;;;;;;;;;;5047927;27;38218;-77
2021/07/18 05:32:49;;;;;;;4.93;2.63;;;;;;;;;;5049604;28;37254;-77
2021/07/18 05:35:15;;;;;;;8.23;2.60;;;;;;;;;;5044926;28;39882;-77
2021/07/18 05:37:42;;;;;;;4.82;2.58;;;;;;;;;;5050560;28;38891;-77
2021/07/18 05:40:10;;;;;;;5.80;2.20;;;;;;;;;;5048996;28;38546;-77
2021/07/18 05:42:36;;;;;;;3.15;1.98;;;;;;;;;;5049264;28;37671;-77
2021/07/18 05:45:06;;;;;;;4.53;1.90;;;;;;;;;;5049717;28;39435;-77
2021/07/18 05:47:34;;;;;;;3.03;2.08;;;;;;;;;;5050249;28;45429;-77
2021/07/18 05:50:01;;;;;;;2.92;1.95;;;;;;;;;;5050312;28;37675;-78
2021/07/18 05:52:27;;;;;;;5.93;2.00;;;;;;;;;;5048489;28;38467;-77
2021/07/18 05:54:55;;;;;;;6.38;2.08;;;;;;;;;;5051567;28;38788;-77
2021/07/18 05:57:22;;;;;;;3.42;1.58;;;;;;;;;;5054428;27;39234;-77
2021/07/18 05:59:48;;;;;;;3.30;1.70;;;;;;;;;;5053885;28;38794;-75
2021/07/18 06:02:15;;;;;;;3.67;1.85;;;;;;;;;;5049728;28;36521;-77
2021/07/18 06:04:42;;;;;;;4.15;1.77;;;;;;;;;;5057230;28;39077;-75
2021/07/18 06:07:09;;;;;;;2.65;1.92;;;;;;;;;;5048392;28;40170;-76
2021/07/18 06:09:35;;;;;;;3.30;1.80;;;;;;;;;;5051241;28;38743;-74
2021/07/18 06:12:02;;;;;;;3.03;1.70;;;;;;;;;;5052736;28;35331;-75
2021/07/18 06:14:28;;;;;;;3.97;1.83;;;;;;;;;;5052674;28;39589;-75
2021/07/18 06:16:55;;;;;;;5.65;2.25;;;;;;;;;;5051319;28;40404;-76
2021/07/18 06:19:21;;;;;;;5.15;2.15;;;;;;;;;;5052333;28;38592;-76
2021/07/18 06:21:47;;;;;;;3.83;1.70;;;;;;;;;;5057979;28;38170;-76
2021/07/18 06:24:14;;;;;;;4.60;1.70;;;;;;;;;;5051259;28;40954;-76
2021/07/18 06:26:40;;;;;;;5.57;1.98;;;;;;;;;;5058537;27;39547;-75
2021/07/18 06:29:07;;;;;;;3.60;1.50;;;;;;;;;;5056887;28;38622;-75
2021/07/18 06:31:33;;;;;;;5.70;1.90;;;;;;;;;;5056812;28;38751;-75
2021/07/18 06:34:00;;;;;;;2.83;1.42;;;;;;;;;;5059877;28;38312;-76
2021/07/18 06:36:26;;;;;;;2.75;1.50;;;;;;;;;;5057011;28;39884;-76
2021/07/18 06:38:52;;;;;;;4.97;1.42;;;;;;;;;;5057282;28;38464;-76
2021/07/18 06:41:19;;;;;;;3.13;1.20;;;;;;;;;;5064127;27;38522;-77
2021/07/18 06:43:45;;;;;;;4.40;1.80;;;;;;;;;;5062231;28;38388;-76
2021/07/18 06:46:11;;;;;;;2.78;1.30;;;;;;;;;;5060174;28;39417;-76
2021/07/18 06:48:38;;;;;;;3.90;1.73;;;;;;;;;;5061285;28;38338;-76
2021/07/18 06:51:04;;;;;;;3.58;1.70;;;;;;;;;;5058460;28;36999;-75
2021/07/18 06:53:31;;;;;;;5.55;1.90;;;;;;;;;;5064586;28;39833;-76
2021/07/18 06:55:57;;;;;;;3.85;1.88;;;;;;;;;;5068688;28;38708;-76
2021/07/18 06:58:24;;;;;;;3.78;1.55;;;;;;;;;;5053840;28;38656;-78
2021/07/18 07:00:50;;;;;;;4.22;1.60;;;;;;;;;;5063172;28;38029;-77
2021/07/18 07:03:16;;;;;;;5.72;1.67;;;;;;;;;;5064719;28;40029;-77
2021/07/18 07:05:43;;;;;;;2.40;1.38;;;;;;;;;;5064149;28;39321;-77
2021/07/18 07:08:09;;;;;;;3.40;1.35;;;;;;;;;;5059458;27;39242;-77
2021/07/18 07:10:36;;;;;;;4.60;1.80;;;;;;;;;;5065865;28;36895;-77
2021/07/18 07:13:02;;;;;;;4.55;1.30;;;;;;;;;;5055621;28;39010;-75
2021/07/18 07:15:29;;;;;;;3.03;1.35;;;;;;;;;;5056615;28;38654;-76
2021/07/18 07:17:57;;;;;;;4.07;1.48;;;;;;;;;;5055566;28;38627;-77
2021/07/18 07:20:24;;;;;;;2.38;1.20;;;;;;;;;;5049791;28;37251;-77
2021/07/18 07:22:50;;;;;;;2.60;1.23;;;;;;;;;;5054142;28;37310;-76
2021/07/18 07:25:16;;;;;;;1.83;1.00;;;;;;;;;;5054301;28;39019;-76
2021/07/18 07:27:44;;;;;;;2.97;1.35;;;;;;;;;;5056779;28;39353;-76
2021/07/18 07:30:12;;;;;;;2.72;1.10;;;;;;;;;;5053953;28;35032;-76
2021/07/18 07:32:38;;;;;;;4.45;1.20;;;;;;;;;;5053643;28;38732;-76
2021/07/18 07:35:06;;;;;;;4.80;1.30;;;;;;;;;;5052638;28;39602;-77
2021/07/18 07:37:32;;;;;;;4.47;0.90;;;;;;;;;;5058554;28;38041;-77
2021/07/18 07:39:58;;;;;;;3.15;1.02;;;;;;;;;;5053176;28;37497;-78
2021/07/18 07:42:25;;;;;;;2.55;1.20;;;;;;;;;;5055423;28;39730;-78
2021/07/18 07:44:52;;;;;;;4.03;1.25;;;;;;;;;;5058589;28;37691;-77
2021/07/18 07:47:18;;;;;;;1.20;1.00;;;;;;;;;;5054413;28;38689;-78
2021/07/18 07:49:45;;;;;;;1.27;0.85;;;;;;;;;;5054439;28;37762;-76
2021/07/18 07:52:12;;;;;;;2.15;0.93;;;;;;;;;;5053657;28;39481;-77
2021/07/18 07:54:39;;;;;;;1.30;0.80;;;;;;;;;;5057830;28;39403;-76
2021/07/18 07:57:05;;;;;;;2.72;0.90;;;;;;;;;;5056486;28;39247;-76
2021/07/18 07:59:32;;;;;;;2.08;1.20;;;;;;;;;;5055101;28;36969;-77
2021/07/18 08:01:58;;;;;;;5.13;1.30;;;;;;;;;;5053907;28;39516;-76
2021/07/18 08:04:25;;;;;;;1.75;1.02;;;;;;;;;;5056735;28;39990;-76
2021/07/18 08:06:52;;;;;;;2.90;1.05;;;;;;;;;;5054839;28;37264;-77
2021/07/18 08:09:18;;;;;;;3.60;1.20;;;;;;;;;;5057936;28;37287;-78
2021/07/18 08:11:45;;;;;;;4.90;1.30;;;;;;;;;;5057527;27;39435;-76
2021/07/18 08:14:12;;;;;;;2.95;1.20;;;;;;;;;;5049829;28;40545;-77
2021/07/18 08:19:14;;;;;;;4.18;1.13;;;;;;;;;;5343664;22;20046;-81
2021/07/18 08:21:48;;;;;;;3.15;0.90;;;;;;;;;;5304545;22;39357;31
2021/07/18 08:24:20;;;;;;;5.20;1.48;;;;;;;;;;5029155;28;37806;-81
2021/07/18 08:26:46;;;;;;;3.22;1.23;;;;;;;;;;5062849;28;36851;-79
2021/07/18 08:29:19;;;;;;;3.25;1.25;;;;;;;;;;5047791;28;36971;-80
2021/07/18 08:31:47;;;;;;;3.25;1.50;;;;;;;;;;5048371;28;38577;-80
2021/07/18 08:42:24;;;;;;;2.80;1.10;;;;;;;;;;5723625;22;20053;-80
2021/07/18 08:47:27;;;;;;;2.17;1.20;;;;;;;;;;5235328;22;20207;-79
2021/07/18 08:49:54;;;;;;;2.40;1.40;;;;;;;;;;5052850;28;36731;-78
2021/07/18 08:52:21;;;;;;;3.10;1.33;;;;;;;;;;5046327;28;39990;-78
2021/07/18 08:54:48;;;;;;;2.15;1.20;;;;;;;;;;5045224;28;39192;-77
2021/07/18 08:57:17;;;;;;;3.40;1.13;;;;;;;;;;5047166;28;39413;-77
2021/07/18 09:02:14;;;;;;;3.15;1.35;;;;;;;;;;5506603;22;20057;-77
2021/07/18 09:04:40;;;;;;;2.42;1.10;;;;;;;;;;5065349;28;39672;-78
2021/07/18 09:07:08;;;;;;;4.40;1.02;;;;;;;;;;5220492;22;39213;-77
2021/07/18 09:09:35;;;;;;;3.47;1.40;;;;;;;;;;5067210;28;38186;-78
2021/07/18 09:12:05;;;;;;;3.83;1.10;;;;;;;;;;5078648;28;39378;-77
2021/07/18 09:14:33;;;;;;;5.63;1.10;;;;;;;;;;5069180;28;48954;-76
2021/07/18 09:16:59;;;;;;;2.65;1.50;;;;;;;;;;5070124;28;39320;-78
2021/07/18 09:19:30;;;;;;;3.42;1.40;;;;;;;;;;5063712;28;36527;-77
2021/07/18 09:22:06;;;;;;;4.35;1.48;;;;;;;;;;5068490;28;39675;-78
2021/07/18 09:24:34;;;;;;;1.95;1.20;;;;;;;;;;5080645;28;48663;-78
2021/07/18 09:27:10;;;;;;;2.67;1.02;;;;;;;;;;5062593;28;38987;-77
2021/07/18 09:29:38;;;;;;;2.45;1.20;;;;;;;;;;5064590;28;48983;-76
2021/07/18 09:32:09;;;;;;;3.10;1.27;;;;;;;;;;5344593;22;39209;-79
2021/07/18 09:34:37;;;;;;;;;;;;;;;;;;5065773;28;39159;-78
2021/07/18 09:37:04;;;;;;;4.60;1.48;;;;;;;;;;5159112;22;37739;-78
2021/07/18 09:39:30;;;;;;;3.13;1.20;;;;;;;;;;5071954;28;36280;-78
2021/07/18 09:44:43;;;;;;;2.15;0.88;;;;;;;;;;5074179;28;20041;-76
2021/07/18 09:47:12;;;;;;;1.77;0.75;;;;;;;;;;5112177;22;38749;-79
2021/07/18 09:49:44;;;;;;;1.98;1.08;;;;;;;;;;5065455;28;35694;-79
2021/07/18 09:52:20;;;;;;;4.10;0.88;;;;;;;;;;5044253;28;39448;-78
2021/07/18 09:54:51;;;;;;;2.05;1.00;;;;;;;;;;5067901;28;39208;-78
2021/07/18 09:57:28;;;;;;;1.90;0.95;;;;;;;;;;5070720;28;38167;-79
2021/07/18 09:59:55;;;;;;;3.97;1.25;;;;;;;;;;5058426;28;36886;-78
2021/07/18 10:02:39;;;;;;;2.22;1.10;;;;;;;;;;5059407;28;38455;-78
2021/07/18 10:05:15;;;;;;;4.15;1.60;;;;;;;;;;5052754;28;40263;-78
2021/07/18 10:07:41;;;;;;;3.55;1.33;;;;;;;;;;5175697;22;48594;-76
2021/07/18 10:10:08;;;;;;;2.78;1.27;;;;;;;;;;5352443;22;37923;-77
2021/07/18 10:12:35;;;;;;;3.33;1.38;;;;;;;;;;5217695;22;39432;-75
2021/07/18 10:15:01;;;;;;;2.20;1.20;;;;;;;;;;5054259;28;38698;-77
2021/07/18 10:17:33;;;;;;;3.92;1.10;;;;;;;;;;5321245;22;38619;-81
2021/07/18 10:20:01;;;;;;;2.28;1.10;;;;;;;;;;5286047;22;34971;-76
2021/07/18 10:22:28;;;;;;;4.18;1.50;;;;;;;;;;5079666;28;39303;-78
2021/07/18 10:24:55;;;;;;;3.05;1.42;;;;;;;;;;5070682;28;38097;-77
2021/07/18 10:27:24;;;;;;;3.35;1.35;;;;;;;;;;5092683;28;38742;-77
2021/07/18 10:29:53;;;;;;;3.95;1.45;;;;;;;;;;5084728;28;37039;-78
2021/07/18 10:32:21;;;;;;;5.70;1.10;;;;;;;;;;5077531;28;41495;-78
2021/07/18 10:34:51;;;;;;;2.55;1.10;;;;;;;;;;5073826;28;38356;-77
2021/07/18 10:37:37;;;;;;;2.72;1.35;;;;;;;;;;5093475;28;38113;-79
2021/07/18 10:40:10;;;;;;;2.45;1.48;;;;;;;;;;5078173;22;38199;-75
2021/07/18 10:42:37;;;;;;;4.05;1.30;;;;;;;;;;5037574;28;46994;-75
2021/07/18 10:45:18;;;;;;;5.82;1.38;;;;;;;;;;5065176;28;38751;-76
2021/07/18 10:47:45;;;;;;;;;;;;;;;;;;5055442;28;48377;-76
2021/07/18 10:50:12;;;;;;;1.52;1.30;;;;;;;;;;5065381;28;36298;-76
2021/07/18 10:52:39;;;;;;;2.08;1.02;;;;;;;;;;5064413;28;39978;-76
2021/07/18 10:55:21;;;;;;;4.07;1.83;;;;;;;;;;5063216;28;40198;-75
2021/07/18 10:57:51;;;;;;;2.55;1.20;;;;;;;;;;5064158;28;38707;-76
2021/07/18 11:00:23;;;;;;;3.13;1.20;;;;;;;;;;5062510;28;37216;-76
2021/07/18 11:03:09;;;;;;;4.00;1.35;;;;;;;;;;5064206;28;40467;-75
2021/07/18 11:05:42;;;;;;;3.42;1.35;;;;;;;;;;5064852;28;47212;-76
2021/07/18 11:08:10;;;;;;;3.00;1.33;;;;;;;;;;5071201;28;40101;-76
2021/07/18 11:10:46;;;;;;;3.45;1.40;;;;;;;;;;5067044;28;36300;-76
2021/07/18 11:13:13;;;;;;;2.33;1.30;;;;;;;;;;5063236;27;39755;-76
2021/07/18 11:15:39;;;;;;;3.63;1.20;;;;;;;;;;5047785;28;39694;-75
2021/07/18 11:18:06;;;;;;;3.03;1.30;;;;;;;;;;5061838;28;38987;-75
2021/07/18 11:20:47;;;;;;;3.13;1.20;;;;;;;;;;5070030;28;37684;-76
2021/07/18 11:23:43;;;;;;;1.88;1.17;;;;;;;;;;5064756;27;38865;-77
2021/07/18 11:26:16;;;;;;;2.75;1.35;;;;;;;;;;5061469;28;39334;-76
2021/07/18 11:31:13;;;;;;;1.90;1.07;;;;;;;;;;5053731;28;38089;-76
2021/07/18 11:33:45;;;;;;;1.73;1.02;;;;;;;;;;5060167;28;38433;-77
2021/07/18 11:36:34;;;;;;;3.58;1.17;;;;;;;;;;5071471;28;40130;-78
2021/07/18 11:39:03;;;;;;;5.30;1.08;;;;;;;;;;5073124;28;38005;-75
2021/07/18 11:41:30;;;;;;;3.30;1.20;;;;;;;;;;5060461;28;47273;-76
2021/07/18 11:43:58;;;;;;;1.95;1.00;;;;;;;;;;5058266;27;40124;-75
2021/07/18 11:46:25;;;;;;;2.13;1.10;;;;;;;;;;5060631;28;39322;-75
2021/07/18 11:48:55;;;;;;;2.35;1.00;;;;;;;;;;5074209;28;38687;-79
2021/07/18 11:51:23;;;;;;;2.20;1.20;;;;;;;;;;5070213;28;37666;-79
2021/07/18 11:54:20;;;;;;;5.22;1.30;;;;;;;;;;5071657;28;40966;-79
2021/07/18 11:56:47;;;;;;;3.50;1.30;;;;;;;;;;5057820;28;48101;-76
2021/07/18 11:59:15;;;;;;;4.55;1.00;;;;;;;;;;5078341;28;38489;-76
2021/07/18 12:01:42;;;;;;;4.32;1.40;;;;;;;;;;5072155;28;37563;-76
2021/07/18 12:04:10;;;;;;;2.92;1.40;;;;;;;;;;5070108;28;38839;-77
2021/07/18 12:06:37;;;;;;;3.85;1.67;;;;;;;;;;5079790;28;37417;-76
2021/07/18 12:09:14;;;;;;;2.30;1.20;;;;;;;;;;5068684;28;38416;-76
2021/07/18 12:11:42;;;;;;;3.22;1.13;;;;;;;;;;5068094;28;38454;-77
2021/07/18 12:14:09;;;;;;;3.22;1.20;;;;;;;;;;5071248;28;38575;-76
2021/07/18 12:16:37;;;;;;;3.50;1.70;;;;;;;;;;5069458;28;38838;-76
2021/07/18 12:19:04;;;;;;;2.53;1.40;;;;;;;;;;5067045;28;38095;-76
2021/07/18 12:21:32;;;;;;;3.22;1.75;;;;;;;;;;5062671;28;37742;-76
2021/07/18 12:24:17;;;;;;;4.03;1.50;;;;;;;;;;5064411;28;39529;-77
2021/07/18 12:27:01;;;;;;;4.22;1.50;;;;;;;;;;5053962;28;47401;-77
2021/07/18 12:29:38;;;;;;;3.67;1.67;;;;;;;;;;5062004;28;47357;-77
2021/07/18 12:34:51;;;;;;;4.37;1.50;;;;;;;;;;5457711;22;20030;-75
2021/07/18 12:37:22;;;;;;;3.80;1.52;;;;;;;;;;5122924;22;38311;-74
2021/07/18 12:39:53;;;;;;;3.95;1.80;;;;;;;;;;5060097;28;38995;-74
2021/07/18 12:42:26;;;;;;;2.60;1.45;;;;;;;;;;5051261;28;37111;-73
2021/07/18 12:44:53;;;;;;;4.68;1.88;;;;;;;;;;5070961;28;38744;-74
2021/07/18 12:47:25;;;;;;;3.95;1.85;;;;;;;;;;5063558;28;38935;-74
2021/07/18 12:50:05;;;;;;;3.83;1.90;;;;;;;;;;5062940;28;36775;-74
2021/07/18 12:52:32;;;;;;;2.17;1.70;;;;;;;;;;5077744;28;47476;-75
2021/07/18 13:32:08;;;;;;;3.25;1.63;;;;;;;;;;5262370;22;20037;-79
2021/07/18 13:34:34;;;;;;;3.17;1.70;;;;;;;;;;5581090;22;48103;-80
2021/07/18 13:37:01;;;;;;;2.50;1.60;;;;;;;;;;5561817;22;38046;-78
2021/07/18 13:42:08;;;;;;;4.60;1.70;;;;;;;;;;5231964;22;20051;-78
2021/07/18 13:44:35;;;;;;;4.30;2.50;;;;;;;;;;5091619;28;39493;-79
2021/07/18 13:47:03;;;;;;;5.82;1.90;;;;;;;;;;5107291;28;37058;-78
2021/07/18 13:49:31;;;;;;;3.30;2.03;;;;;;;;;;5092766;28;47907;-79
2021/07/18 13:51:59;;;;;;;6.43;2.05;;;;;;;;;;5085810;28;37968;-78
2021/07/18 13:54:26;;;;;;;3.03;1.83;;;;;;;;;;5084516;28;38532;-79
2021/07/18 13:56:54;;;;;;;3.13;2.00;;;;;;;;;;5090488;28;37092;-79
2021/07/18 13:59:27;;;;;;;4.43;1.85;;;;;;;;;;5090610;28;39255;-80
2021/07/18 14:01:54;;;;;;;3.40;1.67;;;;;;;;;;5078202;28;39264;-79
2021/07/18 14:04:20;;;;;;;2.63;1.70;;;;;;;;;;5083412;28;39035;-78
2021/07/18 14:06:50;;;;;;;5.32;1.60;;;;;;;;;;5093620;28;37449;-79
2021/07/18 14:09:19;;;;;;;2.38;1.80;;;;;;;;;;5084500;28;38341;-79
2021/07/18 14:11:45;;;;;;;3.83;1.80;;;;;;;;;;5082879;28;38891;-79
2021/07/18 14:14:33;;;;;;;2.05;1.50;;;;;;;;;;5079616;28;38877;-79
2021/07/18 14:17:00;;;;;;;3.45;1.63;;;;;;;;;;5079888;28;37523;-79
2021/07/18 14:19:28;;;;;;;2.35;1.67;;;;;;;;;;5072499;28;39830;-79
2021/07/18 14:21:57;;;;;;;3.30;1.63;;;;;;;;;;5081843;28;38771;-79
2021/07/18 14:24:36;;;;;;;2.20;1.45;;;;;;;;;;5085869;28;39421;-79
2021/07/18 14:27:04;;;;;;;2.67;1.98;;;;;;;;;;5087364;28;37293;-80
2021/07/18 14:29:32;;;;;;;1.80;1.55;;;;;;;;;;5081062;28;39537;-79
2021/07/18 14:32:17;;;;;;;2.15;1.80;;;;;;;;;;5089530;28;38958;-79
2021/07/18 14:34:43;;;;;;;1.48;1.35;;;;;;;;;;5210247;22;48270;-78
2021/07/18 14:37:12;;;;;;;1.95;1.50;;;;;;;;;;5061224;28;38321;-78
2021/07/18 14:39:38;;;;;;;1.83;1.42;;;;;;;;;;5061490;28;39852;-78
2021/07/18 14:42:05;;;;;;;2.13;1.50;;;;;;;;;;5055220;27;38856;-78
2021/07/18 14:44:31;;;;;;;4.05;3.78;;;;;;;;;;5075180;28;38389;-79
2021/07/18 14:46:58;;;;;;;5.82;4.50;;;;;;;;;;5064679;28;36936;-77
2021/07/18 14:49:25;;;;;;;3.55;2.17;;;;;;;;;;5068540;28;39322;-79
2021/07/18 14:51:51;;;;;;;4.22;3.83;;;;;;;;;;5071159;28;41583;-78
2021/07/18 14:54:18;;;;;;;3.20;2.45;;;;;;;;;;5068666;28;37577;-78
2021/07/18 14:56:44;;;;;;;3.42;3.13;;;;;;;;;;5069212;28;37249;-78
2021/07/18 14:59:17;;;;;;;1.60;1.50;;;;;;;;;;5067220;28;41124;-78
2021/07/18 15:01:43;;;;;;;2.00;1.45;;;;;;;;;;5065604;28;38785;-78
2021/07/18 15:04:16;;;;;;;2.88;2.03;;;;;;;;;;5069062;28;40218;-79
2021/07/18 15:06:42;;;;;;;2.67;2.08;;;;;;;;;;5068960;28;35892;-79
2021/07/18 15:09:08;;;;;;;1.60;1.50;;;;;;;;;;5076596;28;40200;-79
2021/07/18 15:11:36;;;;;;;1.70;1.60;;;;;;;;;;5068540;28;20042;-79
2021/07/18 15:14:03;;;;;;;1.98;1.80;;;;;;;;;;5058597;28;38041;-79
2021/07/18 15:16:29;;;;;;;2.53;2.10;;;;;;;;;;5065215;28;38329;-79
2021/07/18 15:18:59;;;;;;;2.60;1.70;;;;;;;;;;5068308;28;39851;-77
2021/07/18 15:21:26;;;;;;;9.35;5.78;;;;;;;;;;5065014;28;38800;-78
2021/07/18 15:23:53;;;;;;;3.97;3.65;;;;;;;;;;5071473;28;39998;-78
2021/07/18 15:26:20;;;;;;;3.65;2.70;;;;;;;;;;5059458;28;36766;-78
2021/07/18 15:28:48;;;;;;;1.92;1.67;;;;;;;;;;5070166;28;37871;-77
2021/07/18 15:31:16;;;;;;;1.88;1.77;;;;;;;;;;5062953;28;38938;-78
2021/07/18 15:33:46;;;;;;;2.28;1.67;;;;;;;;;;5047769;28;37406;-77
2021/07/18 15:36:13;;;;;;;2.15;1.80;;;;;;;;;;5041808;28;35998;-77
2021/07/18 15:38:43;;;;;;;2.65;1.80;;;;;;;;;;5032677;28;38561;-76
2021/07/18 15:41:11;;;;;;;2.30;1.83;;;;;;;;;;5048487;28;40040;-76
2021/07/18 15:43:37;;;;;;;2.05;1.70;;;;;;;;;;5077095;22;39009;-78
2021/07/18 15:46:04;;;;;;;2.00;1.38;;;;;;;;;;5057761;28;37194;-78
2021/07/18 15:48:30;;;;;;;2.70;2.17;;;;;;;;;;5063509;28;38703;-78
2021/07/18 15:50:57;;;;;;;5.30;4.22;;;;;;;;;;5058886;28;38718;-79